sensor_id;sensor_type;location;lat;lon;timestamp;P1;durP1;ratioP1;P2;durP2;ratioP2
1358;SDS011;673;48.098;14.422;2024-02-16T00:00:59;86.63;;;27.40;;
1358;SDS011;673;48.098;14.422;2024-02-16T00:03:26;84.17;;;26.87;;
1358;SDS011;673;48.098;14.422;2024-02-16T00:05:53;87.27;;;28.30;;
1358;SDS011;673;48.098;14.422;2024-02-16T00:08:20;83.33;;;26.03;;
1358;SDS011;673;48.098;14.422;2024-02-16T00:10:49;86.30;;;27.17;;
1358;SDS011;673;48.098;14.422;2024-02-16T00:13:16;83.50;;;27.00;;
1358;SDS011;673;48.098;14.422;2024-02-16T00:15:43;89.17;;;30.10;;
1358;SDS011;673;48.098;14.422;2024-02-16T00:18:10;86.03;;;29.30;;
1358;SDS011;673;48.098;14.422;2024-02-16T00:20:37;87.60;;;29.20;;
1358;SDS011;673;48.098;14.422;2024-02-16T00:23:04;87.90;;;29.43;;
1358;SDS011;673;48.098;14.422;2024-02-16T00:25:31;89.20;;;28.60;;
1358;SDS011;673;48.098;14.422;2024-02-16T00:28:00;88.90;;;30.33;;
1358;SDS011;673;48.098;14.422;2024-02-16T00:30:28;90.37;;;32.03;;
1358;SDS011;673;48.098;14.422;2024-02-16T00:32:55;92.57;;;31.00;;
1358;SDS011;673;48.098;14.422;2024-02-16T00:35:22;93.80;;;30.10;;
1358;SDS011;673;48.098;14.422;2024-02-16T00:37:48;88.17;;;30.50;;
1358;SDS011;673;48.098;14.422;2024-02-16T00:40:17;87.90;;;31.00;;
1358;SDS011;673;48.098;14.422;2024-02-16T00:42:45;94.07;;;33.10;;
1358;SDS011;673;48.098;14.422;2024-02-16T00:45:13;89.53;;;30.87;;
1358;SDS011;673;48.098;14.422;2024-02-16T00:47:40;93.20;;;32.70;;
1358;SDS011;673;48.098;14.422;2024-02-16T00:50:07;91.63;;;32.17;;
1358;SDS011;673;48.098;14.422;2024-02-16T00:52:35;91.50;;;34.30;;
1358;SDS011;673;48.098;14.422;2024-02-16T00:55:02;90.30;;;31.50;;
1358;SDS011;673;48.098;14.422;2024-02-16T00:57:30;92.30;;;30.87;;
1358;SDS011;673;48.098;14.422;2024-02-16T00:59:58;92.17;;;32.37;;
1358;SDS011;673;48.098;14.422;2024-02-16T01:02:26;92.30;;;32.60;;
1358;SDS011;673;48.098;14.422;2024-02-16T01:04:54;95.23;;;34.00;;
1358;SDS011;673;48.098;14.422;2024-02-16T01:07:26;93.37;;;33.27;;
1358;SDS011;673;48.098;14.422;2024-02-16T01:09:54;93.70;;;32.17;;
1358;SDS011;673;48.098;14.422;2024-02-16T01:12:21;93.63;;;35.20;;
1358;SDS011;673;48.098;14.422;2024-02-16T01:14:48;96.23;;;38.13;;
1358;SDS011;673;48.098;14.422;2024-02-16T01:17:15;93.13;;;33.53;;
1358;SDS011;673;48.098;14.422;2024-02-16T01:19:43;97.10;;;33.80;;
1358;SDS011;673;48.098;14.422;2024-02-16T01:22:12;99.70;;;38.13;;
1358;SDS011;673;48.098;14.422;2024-02-16T01:24:39;96.77;;;34.20;;
1358;SDS011;673;48.098;14.422;2024-02-16T01:27:06;97.33;;;36.83;;
1358;SDS011;673;48.098;14.422;2024-02-16T01:29:33;96.20;;;34.70;;
1358;SDS011;673;48.098;14.422;2024-02-16T01:32:00;97.60;;;33.60;;
1358;SDS011;673;48.098;14.422;2024-02-16T01:34:27;92.27;;;34.40;;
1358;SDS011;673;48.098;14.422;2024-02-16T01:36:56;92.77;;;33.10;;
1358;SDS011;673;48.098;14.422;2024-02-16T01:39:23;91.63;;;32.30;;
1358;SDS011;673;48.098;14.422;2024-02-16T01:41:50;96.60;;;35.50;;
1358;SDS011;673;48.098;14.422;2024-02-16T01:44:17;98.07;;;35.37;;
1358;SDS011;673;48.098;14.422;2024-02-16T01:46:44;95.00;;;33.53;;
1358;SDS011;673;48.098;14.422;2024-02-16T01:49:11;95.13;;;34.63;;
1358;SDS011;673;48.098;14.422;2024-02-16T01:51:40;95.47;;;35.03;;
1358;SDS011;673;48.098;14.422;2024-02-16T01:54:11;100.77;;;36.33;;
1358;SDS011;673;48.098;14.422;2024-02-16T01:56:38;98.00;;;34.97;;
1358;SDS011;673;48.098;14.422;2024-02-16T01:59:06;98.27;;;36.90;;
1358;SDS011;673;48.098;14.422;2024-02-16T02:01:32;99.70;;;41.10;;
1358;SDS011;673;48.098;14.422;2024-02-16T02:04:00;103.60;;;35.53;;
1358;SDS011;673;48.098;14.422;2024-02-16T02:06:27;99.17;;;35.30;;
1358;SDS011;673;48.098;14.422;2024-02-16T02:08:54;97.10;;;36.57;;
1358;SDS011;673;48.098;14.422;2024-02-16T02:11:22;101.70;;;37.63;;
1358;SDS011;673;48.098;14.422;2024-02-16T02:13:49;102.73;;;37.90;;
1358;SDS011;673;48.098;14.422;2024-02-16T02:16:16;100.07;;;34.87;;
1358;SDS011;673;48.098;14.422;2024-02-16T02:18:44;99.17;;;34.90;;
1358;SDS011;673;48.098;14.422;2024-02-16T02:21:11;98.10;;;34.70;;
1358;SDS011;673;48.098;14.422;2024-02-16T02:23:40;100.20;;;36.33;;
1358;SDS011;673;48.098;14.422;2024-02-16T02:26:07;104.53;;;38.60;;
1358;SDS011;673;48.098;14.422;2024-02-16T02:28:34;99.40;;;36.27;;
1358;SDS011;673;48.098;14.422;2024-02-16T02:31:01;102.67;;;38.20;;
1358;SDS011;673;48.098;14.422;2024-02-16T02:33:29;104.50;;;39.03;;
1358;SDS011;673;48.098;14.422;2024-02-16T02:35:56;105.73;;;41.13;;
1358;SDS011;673;48.098;14.422;2024-02-16T02:38:23;104.07;;;38.37;;
1358;SDS011;673;48.098;14.422;2024-02-16T02:40:51;103.77;;;40.33;;
1358;SDS011;673;48.098;14.422;2024-02-16T02:43:18;103.07;;;38.10;;
1358;SDS011;673;48.098;14.422;2024-02-16T02:45:47;113.00;;;43.87;;
1358;SDS011;673;48.098;14.422;2024-02-16T02:48:14;107.60;;;40.77;;
1358;SDS011;673;48.098;14.422;2024-02-16T02:50:41;105.70;;;40.77;;
1358;SDS011;673;48.098;14.422;2024-02-16T02:53:08;105.30;;;40.10;;
1358;SDS011;673;48.098;14.422;2024-02-16T02:55:35;110.10;;;43.23;;
1358;SDS011;673;48.098;14.422;2024-02-16T02:58:03;110.57;;;44.67;;
1358;SDS011;673;48.098;14.422;2024-02-16T03:00:30;118.10;;;71.07;;
1358;SDS011;673;48.098;14.422;2024-02-16T03:02:57;122.83;;;78.60;;
1358;SDS011;673;48.098;14.422;2024-02-16T03:05:24;118.47;;;72.07;;
1358;SDS011;673;48.098;14.422;2024-02-16T03:07:51;117.13;;;70.73;;
1358;SDS011;673;48.098;14.422;2024-02-16T03:10:18;102.67;;;40.53;;
1358;SDS011;673;48.098;14.422;2024-02-16T03:12:47;111.97;;;44.60;;
1358;SDS011;673;48.098;14.422;2024-02-16T03:15:16;107.30;;;43.10;;
1358;SDS011;673;48.098;14.422;2024-02-16T03:17:43;110.43;;;43.53;;
1358;SDS011;673;48.098;14.422;2024-02-16T03:20:10;109.60;;;43.80;;
1358;SDS011;673;48.098;14.422;2024-02-16T03:22:37;106.90;;;43.10;;
1358;SDS011;673;48.098;14.422;2024-02-16T03:25:04;109.50;;;44.57;;
1358;SDS011;673;48.098;14.422;2024-02-16T03:27:31;107.50;;;43.50;;
1358;SDS011;673;48.098;14.422;2024-02-16T03:29:59;108.83;;;44.50;;
1358;SDS011;673;48.098;14.422;2024-02-16T03:32:28;108.80;;;44.67;;
1358;SDS011;673;48.098;14.422;2024-02-16T03:34:56;104.57;;;42.90;;
1358;SDS011;673;48.098;14.422;2024-02-16T03:37:23;107.07;;;46.27;;
1358;SDS011;673;48.098;14.422;2024-02-16T03:39:50;110.43;;;45.67;;
1358;SDS011;673;48.098;14.422;2024-02-16T03:42:17;111.77;;;44.77;;
1358;SDS011;673;48.098;14.422;2024-02-16T03:44:44;108.70;;;44.13;;
1358;SDS011;673;48.098;14.422;2024-02-16T03:47:11;109.57;;;44.37;;
1358;SDS011;673;48.098;14.422;2024-02-16T03:49:42;107.97;;;42.87;;
1358;SDS011;673;48.098;14.422;2024-02-16T03:52:12;110.30;;;43.63;;
1358;SDS011;673;48.098;14.422;2024-02-16T03:54:39;105.57;;;46.40;;
1358;SDS011;673;48.098;14.422;2024-02-16T03:57:07;113.50;;;49.30;;
1358;SDS011;673;48.098;14.422;2024-02-16T03:59:36;106.73;;;42.90;;
1358;SDS011;673;48.098;14.422;2024-02-16T04:02:03;104.33;;;41.97;;
1358;SDS011;673;48.098;14.422;2024-02-16T04:04:30;110.50;;;43.37;;
1358;SDS011;673;48.098;14.422;2024-02-16T04:06:58;112.10;;;44.80;;
1358;SDS011;673;48.098;14.422;2024-02-16T04:09:25;109.33;;;45.57;;
1358;SDS011;673;48.098;14.422;2024-02-16T04:11:52;114.03;;;45.40;;
1358;SDS011;673;48.098;14.422;2024-02-16T04:14:19;102.20;;;40.50;;
1358;SDS011;673;48.098;14.422;2024-02-16T04:16:46;109.63;;;46.70;;
1358;SDS011;673;48.098;14.422;2024-02-16T04:19:13;105.37;;;41.63;;
1358;SDS011;673;48.098;14.422;2024-02-16T04:21:40;109.07;;;40.17;;
1358;SDS011;673;48.098;14.422;2024-02-16T04:24:09;102.87;;;41.03;;
1358;SDS011;673;48.098;14.422;2024-02-16T04:26:36;105.77;;;42.50;;
1358;SDS011;673;48.098;14.422;2024-02-16T04:29:03;101.53;;;40.53;;
1358;SDS011;673;48.098;14.422;2024-02-16T04:31:30;98.37;;;37.07;;
1358;SDS011;673;48.098;14.422;2024-02-16T04:33:57;99.20;;;37.47;;
1358;SDS011;673;48.098;14.422;2024-02-16T04:36:24;102.37;;;38.43;;
1358;SDS011;673;48.098;14.422;2024-02-16T04:38:51;99.53;;;38.90;;
1358;SDS011;673;48.098;14.422;2024-02-16T04:41:20;104.53;;;42.07;;
1358;SDS011;673;48.098;14.422;2024-02-16T04:43:47;111.53;;;43.10;;
1358;SDS011;673;48.098;14.422;2024-02-16T04:46:14;104.87;;;41.17;;
1358;SDS011;673;48.098;14.422;2024-02-16T04:48:41;110.53;;;43.77;;
1358;SDS011;673;48.098;14.422;2024-02-16T04:51:09;106.97;;;42.07;;
1358;SDS011;673;48.098;14.422;2024-02-16T04:53:36;106.67;;;42.57;;
1358;SDS011;673;48.098;14.422;2024-02-16T04:56:04;106.23;;;41.83;;
1358;SDS011;673;48.098;14.422;2024-02-16T04:58:32;101.77;;;41.40;;
1358;SDS011;673;48.098;14.422;2024-02-16T05:00:59;103.63;;;41.40;;
1358;SDS011;673;48.098;14.422;2024-02-16T05:03:27;109.40;;;42.83;;
1358;SDS011;673;48.098;14.422;2024-02-16T05:05:54;110.10;;;46.03;;
1358;SDS011;673;48.098;14.422;2024-02-16T05:08:22;112.67;;;41.90;;
1358;SDS011;673;48.098;14.422;2024-02-16T05:10:49;111.00;;;45.07;;
1358;SDS011;673;48.098;14.422;2024-02-16T05:13:16;107.67;;;45.07;;
1358;SDS011;673;48.098;14.422;2024-02-16T05:15:44;104.47;;;42.47;;
1358;SDS011;673;48.098;14.422;2024-02-16T05:18:13;105.87;;;45.80;;
1358;SDS011;673;48.098;14.422;2024-02-16T05:20:42;115.80;;;48.03;;
1358;SDS011;673;48.098;14.422;2024-02-16T05:23:09;107.47;;;46.70;;
1358;SDS011;673;48.098;14.422;2024-02-16T05:25:36;114.60;;;45.63;;
1358;SDS011;673;48.098;14.422;2024-02-16T05:28:03;112.17;;;48.10;;
1358;SDS011;673;48.098;14.422;2024-02-16T05:30:31;125.07;;;48.53;;
1358;SDS011;673;48.098;14.422;2024-02-16T05:32:59;136.53;;;52.57;;
1358;SDS011;673;48.098;14.422;2024-02-16T05:35:26;114.93;;;51.67;;
1358;SDS011;673;48.098;14.422;2024-02-16T05:37:58;115.57;;;51.67;;
1358;SDS011;673;48.098;14.422;2024-02-16T05:40:32;123.03;;;54.27;;
1358;SDS011;673;48.098;14.422;2024-02-16T05:43:10;118.97;;;52.60;;
1358;SDS011;673;48.098;14.422;2024-02-16T05:45:38;115.27;;;48.73;;
1358;SDS011;673;48.098;14.422;2024-02-16T05:48:08;114.10;;;48.97;;
1358;SDS011;673;48.098;14.422;2024-02-16T05:50:35;114.60;;;51.03;;
1358;SDS011;673;48.098;14.422;2024-02-16T05:53:02;117.57;;;49.97;;
1358;SDS011;673;48.098;14.422;2024-02-16T05:55:29;111.80;;;47.10;;
1358;SDS011;673;48.098;14.422;2024-02-16T05:57:56;114.13;;;48.80;;
1358;SDS011;673;48.098;14.422;2024-02-16T06:00:23;119.50;;;50.57;;
1358;SDS011;673;48.098;14.422;2024-02-16T06:02:52;125.73;;;55.20;;
1358;SDS011;673;48.098;14.422;2024-02-16T06:05:20;118.57;;;52.30;;
1358;SDS011;673;48.098;14.422;2024-02-16T06:07:47;118.17;;;49.83;;
1358;SDS011;673;48.098;14.422;2024-02-16T06:10:14;115.90;;;51.57;;
1358;SDS011;673;48.098;14.422;2024-02-16T06:12:43;115.80;;;49.17;;
1358;SDS011;673;48.098;14.422;2024-02-16T06:15:10;118.07;;;52.17;;
1358;SDS011;673;48.098;14.422;2024-02-16T06:17:37;117.07;;;51.77;;
1358;SDS011;673;48.098;14.422;2024-02-16T06:20:06;119.43;;;50.90;;
1358;SDS011;673;48.098;14.422;2024-02-16T06:22:36;126.07;;;57.23;;
1358;SDS011;673;48.098;14.422;2024-02-16T06:25:03;121.70;;;53.30;;
1358;SDS011;673;48.098;14.422;2024-02-16T06:27:30;122.93;;;52.83;;
1358;SDS011;673;48.098;14.422;2024-02-16T06:29:57;123.57;;;52.93;;
1358;SDS011;673;48.098;14.422;2024-02-16T06:32:24;120.67;;;51.53;;
1358;SDS011;673;48.098;14.422;2024-02-16T06:34:51;118.63;;;53.17;;
1358;SDS011;673;48.098;14.422;2024-02-16T06:37:18;121.03;;;51.07;;
1358;SDS011;673;48.098;14.422;2024-02-16T06:39:47;124.67;;;53.37;;
1358;SDS011;673;48.098;14.422;2024-02-16T06:42:14;121.13;;;52.07;;
1358;SDS011;673;48.098;14.422;2024-02-16T06:44:41;116.03;;;51.20;;
1358;SDS011;673;48.098;14.422;2024-02-16T06:47:08;125.90;;;54.10;;
1358;SDS011;673;48.098;14.422;2024-02-16T06:49:35;119.33;;;53.17;;
1358;SDS011;673;48.098;14.422;2024-02-16T06:52:02;124.50;;;53.60;;
1358;SDS011;673;48.098;14.422;2024-02-16T06:54:30;122.17;;;53.70;;
1358;SDS011;673;48.098;14.422;2024-02-16T06:56:58;120.10;;;55.27;;
1358;SDS011;673;48.098;14.422;2024-02-16T06:59:27;115.47;;;50.33;;
1358;SDS011;673;48.098;14.422;2024-02-16T07:01:54;121.60;;;52.67;;
1358;SDS011;673;48.098;14.422;2024-02-16T07:04:21;116.10;;;52.70;;
1358;SDS011;673;48.098;14.422;2024-02-16T07:06:48;117.80;;;50.20;;
1358;SDS011;673;48.098;14.422;2024-02-16T07:09:15;113.87;;;48.27;;
1358;SDS011;673;48.098;14.422;2024-02-16T07:11:42;118.27;;;50.87;;
1358;SDS011;673;48.098;14.422;2024-02-16T07:14:12;118.13;;;47.97;;
1358;SDS011;673;48.098;14.422;2024-02-16T07:16:39;112.43;;;48.23;;
1358;SDS011;673;48.098;14.422;2024-02-16T07:19:06;114.57;;;47.47;;
1358;SDS011;673;48.098;14.422;2024-02-16T07:21:33;112.47;;;46.77;;
1358;SDS011;673;48.098;14.422;2024-02-16T07:24:00;122.07;;;56.13;;
1358;SDS011;673;48.098;14.422;2024-02-16T07:26:27;116.10;;;47.93;;
1358;SDS011;673;48.098;14.422;2024-02-16T07:28:54;119.47;;;47.80;;
1358;SDS011;673;48.098;14.422;2024-02-16T07:31:23;114.97;;;46.07;;
1358;SDS011;673;48.098;14.422;2024-02-16T07:33:50;116.73;;;51.77;;
1358;SDS011;673;48.098;14.422;2024-02-16T07:36:17;112.77;;;46.77;;
1358;SDS011;673;48.098;14.422;2024-02-16T07:38:44;117.77;;;48.73;;
1358;SDS011;673;48.098;14.422;2024-02-16T07:41:11;114.50;;;47.47;;
1358;SDS011;673;48.098;14.422;2024-02-16T07:43:38;111.13;;;44.33;;
1358;SDS011;673;48.098;14.422;2024-02-16T07:46:05;115.57;;;49.27;;
1358;SDS011;673;48.098;14.422;2024-02-16T07:48:34;112.87;;;47.90;;
1358;SDS011;673;48.098;14.422;2024-02-16T07:51:01;114.93;;;47.20;;
1358;SDS011;673;48.098;14.422;2024-02-16T07:53:29;116.97;;;48.70;;
1358;SDS011;673;48.098;14.422;2024-02-16T07:55:56;108.47;;;44.70;;
1358;SDS011;673;48.098;14.422;2024-02-16T07:58:23;111.93;;;44.57;;
1358;SDS011;673;48.098;14.422;2024-02-16T08:00:50;108.83;;;44.30;;
1358;SDS011;673;48.098;14.422;2024-02-16T08:03:19;108.30;;;43.17;;
1358;SDS011;673;48.098;14.422;2024-02-16T08:05:47;106.43;;;43.67;;
1358;SDS011;673;48.098;14.422;2024-02-16T08:08:14;112.03;;;43.40;;
1358;SDS011;673;48.098;14.422;2024-02-16T08:10:41;111.43;;;44.33;;
1358;SDS011;673;48.098;14.422;2024-02-16T08:13:08;107.53;;;44.63;;
1358;SDS011;673;48.098;14.422;2024-02-16T08:15:35;107.00;;;42.27;;
1358;SDS011;673;48.098;14.422;2024-02-16T08:18:02;107.77;;;45.10;;
1358;SDS011;673;48.098;14.422;2024-02-16T08:20:30;108.10;;;43.37;;
1358;SDS011;673;48.098;14.422;2024-02-16T08:22:59;104.07;;;42.47;;
1358;SDS011;673;48.098;14.422;2024-02-16T08:25:26;105.57;;;41.80;;
1358;SDS011;673;48.098;14.422;2024-02-16T08:27:55;105.60;;;42.07;;
1358;SDS011;673;48.098;14.422;2024-02-16T08:30:22;103.23;;;42.00;;
1358;SDS011;673;48.098;14.422;2024-02-16T08:32:50;107.53;;;46.33;;
1358;SDS011;673;48.098;14.422;2024-02-16T08:35:17;106.00;;;41.50;;
1358;SDS011;673;48.098;14.422;2024-02-16T08:37:44;103.70;;;44.70;;
1358;SDS011;673;48.098;14.422;2024-02-16T08:40:13;106.90;;;46.80;;
1358;SDS011;673;48.098;14.422;2024-02-16T08:42:40;102.83;;;48.60;;
1358;SDS011;673;48.098;14.422;2024-02-16T08:45:08;113.67;;;57.43;;
1358;SDS011;673;48.098;14.422;2024-02-16T08:47:35;103.77;;;49.97;;
1358;SDS011;673;48.098;14.422;2024-02-16T08:50:02;105.90;;;51.77;;
1358;SDS011;673;48.098;14.422;2024-02-16T08:52:30;106.27;;;45.47;;
1358;SDS011;673;48.098;14.422;2024-02-16T08:54:57;96.63;;;41.30;;
1358;SDS011;673;48.098;14.422;2024-02-16T08:57:26;95.30;;;39.00;;
1358;SDS011;673;48.098;14.422;2024-02-16T08:59:54;94.83;;;38.00;;
1358;SDS011;673;48.098;14.422;2024-02-16T09:02:21;95.03;;;36.20;;
1358;SDS011;673;48.098;14.422;2024-02-16T09:04:48;93.83;;;38.27;;
1358;SDS011;673;48.098;14.422;2024-02-16T09:07:15;93.73;;;38.40;;
1358;SDS011;673;48.098;14.422;2024-02-16T09:09:42;98.40;;;42.20;;
1358;SDS011;673;48.098;14.422;2024-02-16T09:12:09;94.77;;;40.83;;
1358;SDS011;673;48.098;14.422;2024-02-16T09:14:38;97.60;;;38.53;;
1358;SDS011;673;48.098;14.422;2024-02-16T09:17:05;91.70;;;37.77;;
1358;SDS011;673;48.098;14.422;2024-02-16T09:19:32;100.10;;;42.43;;
1358;SDS011;673;48.098;14.422;2024-02-16T09:21:59;93.57;;;39.63;;
1358;SDS011;673;48.098;14.422;2024-02-16T09:24:28;94.47;;;36.87;;
1358;SDS011;673;48.098;14.422;2024-02-16T09:26:55;102.10;;;40.83;;
1358;SDS011;673;48.098;14.422;2024-02-16T09:29:26;95.47;;;36.70;;
1358;SDS011;673;48.098;14.422;2024-02-16T09:31:55;95.00;;;32.37;;
1358;SDS011;673;48.098;14.422;2024-02-16T09:34:22;89.87;;;30.93;;
1358;SDS011;673;48.098;14.422;2024-02-16T09:36:49;90.43;;;31.40;;
1358;SDS011;673;48.098;14.422;2024-02-16T09:39:16;90.00;;;29.83;;
1358;SDS011;673;48.098;14.422;2024-02-16T09:41:43;89.37;;;29.27;;
1358;SDS011;673;48.098;14.422;2024-02-16T09:44:16;92.90;;;30.77;;
1358;SDS011;673;48.098;14.422;2024-02-16T09:46:43;91.27;;;29.27;;
1358;SDS011;673;48.098;14.422;2024-02-16T09:49:12;89.93;;;30.63;;
1358;SDS011;673;48.098;14.422;2024-02-16T09:51:39;88.27;;;29.10;;
1358;SDS011;673;48.098;14.422;2024-02-16T09:54:05;94.47;;;32.17;;
1358;SDS011;673;48.098;14.422;2024-02-16T09:56:33;88.43;;;29.77;;
1358;SDS011;673;48.098;14.422;2024-02-16T09:59:00;89.50;;;29.43;;
1358;SDS011;673;48.098;14.422;2024-02-16T10:01:27;93.90;;;31.73;;
1358;SDS011;673;48.098;14.422;2024-02-16T10:03:59;89.17;;;29.50;;
1358;SDS011;673;48.098;14.422;2024-02-16T10:06:33;92.50;;;30.30;;
1358;SDS011;673;48.098;14.422;2024-02-16T10:09:21;91.57;;;32.70;;
1358;SDS011;673;48.098;14.422;2024-02-16T10:11:49;91.53;;;30.60;;
1358;SDS011;673;48.098;14.422;2024-02-16T10:14:16;89.90;;;31.40;;
1358;SDS011;673;48.098;14.422;2024-02-16T10:16:44;89.40;;;29.60;;
1358;SDS011;673;48.098;14.422;2024-02-16T10:19:11;88.70;;;28.10;;
1358;SDS011;673;48.098;14.422;2024-02-16T10:21:41;88.20;;;28.80;;
1358;SDS011;673;48.098;14.422;2024-02-16T10:24:08;89.30;;;31.37;;
1358;SDS011;673;48.098;14.422;2024-02-16T10:26:36;87.97;;;28.00;;
1358;SDS011;673;48.098;14.422;2024-02-16T10:29:04;98.00;;;34.47;;
1358;SDS011;673;48.098;14.422;2024-02-16T10:31:32;94.50;;;31.20;;
1358;SDS011;673;48.098;14.422;2024-02-16T10:33:59;89.00;;;28.17;;
1358;SDS011;673;48.098;14.422;2024-02-16T10:36:30;89.83;;;28.27;;
1358;SDS011;673;48.098;14.422;2024-02-16T10:38:59;91.03;;;30.50;;
1358;SDS011;673;48.098;14.422;2024-02-16T10:41:29;90.27;;;31.37;;
1358;SDS011;673;48.098;14.422;2024-02-16T10:43:59;91.57;;;33.53;;
1358;SDS011;673;48.098;14.422;2024-02-16T10:46:28;88.00;;;31.13;;
1358;SDS011;673;48.098;14.422;2024-02-16T10:48:55;87.67;;;28.10;;
1358;SDS011;673;48.098;14.422;2024-02-16T10:51:23;90.90;;;29.10;;
1358;SDS011;673;48.098;14.422;2024-02-16T10:53:55;94.50;;;34.10;;
1358;SDS011;673;48.098;14.422;2024-02-16T10:56:31;83.57;;;27.80;;
1358;SDS011;673;48.098;14.422;2024-02-16T10:59:00;90.37;;;28.63;;
1358;SDS011;673;48.098;14.422;2024-02-16T11:01:31;86.87;;;28.30;;
1358;SDS011;673;48.098;14.422;2024-02-16T11:04:00;87.10;;;27.80;;
1358;SDS011;673;48.098;14.422;2024-02-16T11:06:29;84.80;;;25.73;;
1358;SDS011;673;48.098;14.422;2024-02-16T11:09:01;87.00;;;28.30;;
1358;SDS011;673;48.098;14.422;2024-02-16T11:11:34;88.00;;;28.13;;
1358;SDS011;673;48.098;14.422;2024-02-16T11:14:02;89.77;;;29.70;;
1358;SDS011;673;48.098;14.422;2024-02-16T11:16:29;87.60;;;27.53;;
1358;SDS011;673;48.098;14.422;2024-02-16T11:18:57;89.37;;;28.40;;
1358;SDS011;673;48.098;14.422;2024-02-16T11:21:29;89.77;;;28.33;;
1358;SDS011;673;48.098;14.422;2024-02-16T11:24:03;86.80;;;27.40;;
1358;SDS011;673;48.098;14.422;2024-02-16T11:26:34;89.60;;;28.00;;
1358;SDS011;673;48.098;14.422;2024-02-16T11:29:08;95.37;;;34.37;;
1358;SDS011;673;48.098;14.422;2024-02-16T11:31:35;86.67;;;28.23;;
1358;SDS011;673;48.098;14.422;2024-02-16T11:34:02;89.70;;;27.30;;
1358;SDS011;673;48.098;14.422;2024-02-16T11:36:29;83.93;;;25.77;;
1358;SDS011;673;48.098;14.422;2024-02-16T11:38:56;85.40;;;27.10;;
1358;SDS011;673;48.098;14.422;2024-02-16T11:41:23;86.10;;;24.50;;
1358;SDS011;673;48.098;14.422;2024-02-16T11:43:58;85.40;;;26.80;;
1358;SDS011;673;48.098;14.422;2024-02-16T11:46:24;83.40;;;25.43;;
1358;SDS011;673;48.098;14.422;2024-02-16T11:48:51;82.70;;;24.50;;
1358;SDS011;673;48.098;14.422;2024-02-16T11:51:18;85.77;;;27.43;;
1358;SDS011;673;48.098;14.422;2024-02-16T11:53:45;86.00;;;26.40;;
1358;SDS011;673;48.098;14.422;2024-02-16T11:56:22;87.23;;;28.20;;
1358;SDS011;673;48.098;14.422;2024-02-16T11:58:49;85.47;;;25.77;;
1358;SDS011;673;48.098;14.422;2024-02-16T12:01:18;86.80;;;27.30;;
1358;SDS011;673;48.098;14.422;2024-02-16T12:03:46;84.20;;;27.37;;
1358;SDS011;673;48.098;14.422;2024-02-16T12:06:19;86.87;;;26.67;;
1358;SDS011;673;48.098;14.422;2024-02-16T12:08:46;84.90;;;27.50;;
1358;SDS011;673;48.098;14.422;2024-02-16T12:11:13;81.50;;;24.67;;
1358;SDS011;673;48.098;14.422;2024-02-16T12:13:40;83.83;;;27.10;;
1358;SDS011;673;48.098;14.422;2024-02-16T12:16:09;83.37;;;26.30;;
1358;SDS011;673;48.098;14.422;2024-02-16T12:18:37;85.10;;;24.90;;
1358;SDS011;673;48.098;14.422;2024-02-16T12:21:05;86.07;;;27.47;;
1358;SDS011;673;48.098;14.422;2024-02-16T12:23:32;84.87;;;27.20;;
1358;SDS011;673;48.098;14.422;2024-02-16T12:26:00;83.00;;;28.67;;
1358;SDS011;673;48.098;14.422;2024-02-16T12:28:28;81.53;;;26.97;;
1358;SDS011;673;48.098;14.422;2024-02-16T12:30:57;86.83;;;29.90;;
1358;SDS011;673;48.098;14.422;2024-02-16T12:33:25;92.73;;;31.70;;
1358;SDS011;673;48.098;14.422;2024-02-16T12:35:52;83.40;;;26.40;;
1358;SDS011;673;48.098;14.422;2024-02-16T12:38:20;85.47;;;29.70;;
1358;SDS011;673;48.098;14.422;2024-02-16T12:40:48;84.93;;;29.60;;
1358;SDS011;673;48.098;14.422;2024-02-16T12:43:15;88.63;;;26.10;;
1358;SDS011;673;48.098;14.422;2024-02-16T12:45:43;81.60;;;25.50;;
1358;SDS011;673;48.098;14.422;2024-02-16T12:48:10;81.83;;;24.93;;
1358;SDS011;673;48.098;14.422;2024-02-16T12:50:41;82.57;;;26.20;;
1358;SDS011;673;48.098;14.422;2024-02-16T12:53:08;80.70;;;25.53;;
1358;SDS011;673;48.098;14.422;2024-02-16T12:55:34;84.67;;;24.87;;
1358;SDS011;673;48.098;14.422;2024-02-16T12:58:02;84.40;;;26.13;;
1358;SDS011;673;48.098;14.422;2024-02-16T13:00:29;84.03;;;25.70;;
1358;SDS011;673;48.098;14.422;2024-02-16T13:02:56;82.37;;;24.77;;
1358;SDS011;673;48.098;14.422;2024-02-16T13:05:23;79.27;;;24.63;;
1358;SDS011;673;48.098;14.422;2024-02-16T13:07:51;82.57;;;26.20;;
1358;SDS011;673;48.098;14.422;2024-02-16T13:10:18;81.73;;;24.53;;
1358;SDS011;673;48.098;14.422;2024-02-16T13:12:45;82.70;;;26.17;;
1358;SDS011;673;48.098;14.422;2024-02-16T13:15:12;81.20;;;23.97;;
1358;SDS011;673;48.098;14.422;2024-02-16T13:17:39;82.03;;;24.50;;
1358;SDS011;673;48.098;14.422;2024-02-16T13:20:06;84.30;;;22.97;;
1358;SDS011;673;48.098;14.422;2024-02-16T13:22:34;77.97;;;22.27;;
1358;SDS011;673;48.098;14.422;2024-02-16T13:25:03;79.20;;;23.97;;
1358;SDS011;673;48.098;14.422;2024-02-16T13:27:30;79.30;;;21.93;;
1358;SDS011;673;48.098;14.422;2024-02-16T13:29:57;82.30;;;23.73;;
1358;SDS011;673;48.098;14.422;2024-02-16T13:32:24;80.37;;;22.00;;
1358;SDS011;673;48.098;14.422;2024-02-16T13:34:51;85.30;;;26.13;;
1358;SDS011;673;48.098;14.422;2024-02-16T13:37:18;80.10;;;22.13;;
1358;SDS011;673;48.098;14.422;2024-02-16T13:39:45;77.57;;;21.97;;
1358;SDS011;673;48.098;14.422;2024-02-16T13:42:13;81.97;;;21.53;;
1358;SDS011;673;48.098;14.422;2024-02-16T13:44:40;78.40;;;20.87;;
1358;SDS011;673;48.098;14.422;2024-02-16T13:47:07;79.20;;;21.53;;
1358;SDS011;673;48.098;14.422;2024-02-16T13:49:34;80.10;;;21.87;;
1358;SDS011;673;48.098;14.422;2024-02-16T13:52:01;84.07;;;24.47;;
1358;SDS011;673;48.098;14.422;2024-02-16T13:54:28;79.87;;;22.30;;
1358;SDS011;673;48.098;14.422;2024-02-16T13:56:55;80.60;;;23.30;;
1358;SDS011;673;48.098;14.422;2024-02-16T13:59:24;79.40;;;21.80;;
1358;SDS011;673;48.098;14.422;2024-02-16T14:01:50;79.57;;;22.57;;
1358;SDS011;673;48.098;14.422;2024-02-16T14:04:18;79.67;;;21.57;;
1358;SDS011;673;48.098;14.422;2024-02-16T14:06:45;83.90;;;22.20;;
1358;SDS011;673;48.098;14.422;2024-02-16T14:09:12;82.30;;;25.10;;
1358;SDS011;673;48.098;14.422;2024-02-16T14:11:39;93.80;;;22.80;;
1358;SDS011;673;48.098;14.422;2024-02-16T14:14:07;79.70;;;21.80;;
1358;SDS011;673;48.098;14.422;2024-02-16T14:16:36;79.53;;;23.50;;
1358;SDS011;673;48.098;14.422;2024-02-16T14:19:03;79.60;;;22.10;;
1358;SDS011;673;48.098;14.422;2024-02-16T14:21:30;80.80;;;21.77;;
1358;SDS011;673;48.098;14.422;2024-02-16T14:23:57;78.77;;;20.67;;
1358;SDS011;673;48.098;14.422;2024-02-16T14:26:24;81.80;;;20.90;;
1358;SDS011;673;48.098;14.422;2024-02-16T14:28:51;80.03;;;22.23;;
1358;SDS011;673;48.098;14.422;2024-02-16T14:31:20;76.90;;;21.27;;
1358;SDS011;673;48.098;14.422;2024-02-16T14:33:48;81.30;;;22.03;;
1358;SDS011;673;48.098;14.422;2024-02-16T14:36:15;82.20;;;21.07;;
1358;SDS011;673;48.098;14.422;2024-02-16T14:38:42;80.37;;;22.90;;
1358;SDS011;673;48.098;14.422;2024-02-16T14:41:09;79.40;;;21.43;;
1358;SDS011;673;48.098;14.422;2024-02-16T14:43:36;82.30;;;24.37;;